createdAt,value
2022-09-05T00:01:03.597Z,99529.06
2022-09-05T00:11:43.320Z,99523.73
2022-09-05T00:32:51.025Z,99521.53
2022-09-05T00:43:15.640Z,99520.02
2022-09-05T00:53:39.970Z,99518.52
2022-09-05T01:04:07.760Z,99518.85
2022-09-05T01:14:52.045Z,99528.78
2022-09-05T01:25:20.770Z,99540.02
2022-09-05T01:36:15.705Z,99539.73
2022-09-05T01:46:43.724Z,99555.55
2022-09-05T01:57:08.811Z,99555.27
2022-09-05T02:07:35.353Z,99553.05
2022-09-05T02:18:02.854Z,99551.76
2022-09-05T02:28:25.803Z,99552.91
2022-09-05T02:45:02.266Z,99550.45
2022-09-05T02:53:13.793Z,99540.17
2022-09-05T03:00:37.104Z,99538.75
2022-09-05T03:11:46.532Z,99540.61
2022-09-05T03:22:36.236Z,99538.64
2022-09-05T03:33:37.999Z,99545.69
2022-09-05T03:44:22.375Z,99550.36
2022-09-05T03:57:25.905Z,99556.09
2022-09-05T04:08:26.242Z,99563.64
2022-09-05T04:16:57.575Z,99567.58
2022-09-05T04:27:31.730Z,99575.14
2022-09-05T04:37:55.696Z,99587.28
2022-09-05T04:48:20.116Z,99598.56
2022-09-05T05:00:42.687Z,99605.29
2022-09-05T05:09:41.235Z,99620.69
2022-09-05T05:20:39.773Z,99631.66
2022-09-05T05:31:01.211Z,99632.13
2022-09-05T05:41:34.553Z,99632.98
2022-09-05T05:52:41.100Z,99642.25
2022-09-05T06:03:49.147Z,99646.52
2022-09-05T06:15:08.811Z,99644.14
2022-09-05T06:26:00.639Z,99644.86
2022-09-05T06:36:27.448Z,99645.99
2022-09-05T06:47:22.549Z,99648.16
2022-09-05T06:57:49.741Z,99659.16
2022-09-05T07:08:36.140Z,99662.39
2022-09-05T07:19:06.963Z,99665.41
2022-09-05T07:29:37.475Z,99668.19
2022-09-05T07:40:24.934Z,99678.10
2022-09-05T07:56:46.154Z,99677.46
2022-09-05T08:01:38.637Z,99678.66
2022-09-05T08:12:11.487Z,99681.83
2022-09-05T08:22:40.614Z,99679.25
2022-09-05T08:33:12.778Z,99675.54
2022-09-05T08:46:37.587Z,99673.91
2022-09-05T08:54:23.442Z,99660.47
2022-09-05T09:05:02.490Z,99649.60
2022-09-05T09:15:36.759Z,99644.71
2022-09-05T09:25:59.694Z,99641.39
2022-09-05T09:36:32.437Z,99640.92
2022-09-05T09:46:57.678Z,99632.33
2022-09-05T09:57:51.578Z,99624.81
2022-09-05T10:10:54.005Z,99630.28
2022-09-05T10:20:10.561Z,99618.80
2022-09-05T10:33:16.949Z,99607.13
2022-09-05T10:41:43.689Z,99605.80
2022-09-05T10:52:17.858Z,99596.67
2022-09-05T11:02:48.303Z,99578.83
2022-09-05T11:13:17.310Z,99578.38
2022-09-05T11:23:41.513Z,99576.48
2022-09-05T11:39:48.559Z,99576.19
2022-09-05T11:45:37.024Z,99573.31
2022-09-05T11:56:45.473Z,99566.54
2022-09-05T12:07:30.105Z,99565.40
2022-09-05T12:18:19.454Z,99555.86
2022-09-05T12:29:33.394Z,99548.15
2022-09-05T12:40:57.747Z,99549.59
2022-09-05T12:50:25.793Z,99536.60
2022-09-05T13:03:14.305Z,99532.11
2022-09-05T13:15:02.616Z,99528.33
2022-09-05T13:22:23.647Z,99524.83
2022-09-05T13:38:06.456Z,99519.42
2022-09-05T13:43:35.474Z,99517.46
2022-09-05T13:54:16.613Z,99518.13
2022-09-05T14:05:06.025Z,99512.86
2022-09-05T14:15:53.709Z,99507.88
2022-09-05T14:26:25.970Z,99502.33
2022-09-05T14:38:00.849Z,99497.54
2022-09-05T14:47:51.551Z,99489.67
2022-09-05T15:02:45.585Z,99481.54
2022-09-05T15:11:24.102Z,99485.80
2022-09-05T15:18:57.243Z,99483.84
2022-09-05T15:29:14.653Z,99472.26
2022-09-05T15:39:26.247Z,99467.27
2022-09-05T15:49:37.044Z,99459.80
2022-09-05T15:59:49.651Z,99456.11
2022-09-05T16:10:46.390Z,99447.17
2022-09-05T16:23:14.891Z,99443.68
2022-09-05T16:31:03.883Z,99441.35
2022-09-05T16:41:08.753Z,99440.25
2022-09-05T16:51:35.175Z,99437.35
2022-09-05T17:01:54.883Z,99438.40
2022-09-05T17:12:10.623Z,99442.64
2022-09-05T17:25:42.954Z,99444.14
2022-09-05T17:32:46.252Z,99440.71
2022-09-05T17:42:58.953Z,99445.90
2022-09-05T17:53:26.329Z,99457.17
2022-09-05T18:04:08.479Z,99468.35
2022-09-05T18:14:42.859Z,99478.55
2022-09-05T18:24:55.048Z,99481.17
2022-09-05T18:35:29.297Z,99483.35
2022-09-05T18:45:52.391Z,99489.36
2022-09-05T18:56:20.801Z,99492.35
2022-09-05T19:06:36.200Z,99488.68
2022-09-05T19:16:48.414Z,99486.86
2022-09-05T19:28:57.046Z,99480.85
2022-09-05T19:37:47.421Z,99480.03
2022-09-05T19:48:07.402Z,99475.96
2022-09-05T19:58:20.602Z,99466.67
2022-09-05T20:18:39.823Z,99459.50
2022-09-05T20:28:52.720Z,99459.04
2022-09-05T20:43:14.980Z,99458.14
2022-09-05T20:54:28.948Z,99453.21
2022-09-05T21:00:04.238Z,99451.91
2022-09-05T21:10:28.679Z,99459.70
2022-09-05T21:20:52.338Z,99462.13
2022-09-05T21:30:57.942Z,99464.41
2022-09-05T21:41:08.338Z,99471.21
2022-09-05T21:51:14.765Z,99477.56
2022-09-05T22:01:19.366Z,99464.09
2022-09-05T22:11:46.309Z,99463.26
2022-09-05T22:21:56.190Z,99449.60
2022-09-05T22:32:04.195Z,99434.77
2022-09-05T22:42:11.101Z,99438.40
2022-09-05T22:52:18.689Z,99442.39
2022-09-05T23:02:25.805Z,99445.92
2022-09-05T23:12:36.542Z,99439.64
2022-09-05T23:22:43.284Z,99430.80
2022-09-05T23:32:52.168Z,99426.54
2022-09-05T23:43:00.017Z,99429.33
2022-09-05T23:53:07.697Z,99426.77
